Time,TemperatureF,DewpointF,PressureIn,WindDirection,WindDirectionDegrees,WindSpeedMPH,WindSpeedGustMPH,Humidity,HourlyPrecipIn,Conditions,Clouds,dailyrainin,SoftwareType,DateUTC
2013-01-16 00:00:00,27.7,22.0,30.12,NW,315,0.0,0.0,79,0.00,,,0.00,WUHU21623XXSP,2013-01-16 05:00:00,
2013-01-16 00:01:00,27.7,22.0,30.12,NW,315,0.0,0.0,79,0.00,,,0.00,WUHU21623XXSP,2013-01-16 05:01:00,
2013-01-16 00:07:00,27.5,21.8,30.12,NW,315,0.0,0.0,79,0.00,,,0.00,WUHU21623XXSP,2013-01-16 05:07:00,
2013-01-16 00:12:00,27.3,21.6,30.12,NW,315,0.0,0.0,79,0.00,,,0.00,WUHU21623XXSP,2013-01-16 05:12:00,
2013-01-16 00:17:00,27.1,21.4,30.11,NW,315,0.0,0.0,79,0.00,,,0.00,WUHU21623XXSP,2013-01-16 05:17:00,
2013-01-16 00:22:00,27.1,21.7,30.11,NW,315,0.0,0.0,80,0.00,,,0.00,WUHU21623XXSP,2013-01-16 05:22:00,
2013-01-16 00:27:00,27.0,21.6,30.11,NW,315,0.0,0.0,80,0.00,,,0.00,WUHU21623XXSP,2013-01-16 05:27:00,
2013-01-16 00:32:00,26.8,21.4,30.11,NW,315,0.0,0.0,80,0.00,,,0.00,WUHU21623XXSP,2013-01-16 05:32:00,
2013-01-16 00:37:00,26.4,21.0,30.11,NW,315,0.0,0.0,80,0.00,,,0.00,WUHU21623XXSP,2013-01-16 05:37:00,
2013-01-16 00:42:00,26.2,20.9,30.10,NW,315,0.0,0.0,80,0.00,,,0.00,WUHU21623XXSP,2013-01-16 05:42:00,
2013-01-16 00:47:00,26.1,20.7,30.10,NW,315,0.0,0.0,80,0.00,,,0.00,WUHU21623XXSP,2013-01-16 05:47:00,
2013-01-16 00:52:00,25.9,20.6,30.09,NW,315,0.0,0.0,80,0.00,,,0.00,WUHU21623XXSP,2013-01-16 05:52:00,
2013-01-16 00:57:00,25.7,20.4,30.09,NW,315,0.0,0.0,81,0.00,,,0.00,WUHU21623XXSP,2013-01-16 05:57:00,
2013-01-16 00:59:00,25.5,20.5,30.09,NW,315,0.0,0.0,81,0.00,,,0.00,WUHU21623XXSP,2013-01-16 05:59:00,
2013-01-16 01:02:00,25.5,20.5,30.09,NW,315,0.0,0.0,81,0.00,,,0.00,WUHU21623XXSP,2013-01-16 06:02:00,
2013-01-16 01:07:00,25.5,20.5,30.10,NW,315,0.0,0.0,81,0.00,,,0.00,WUHU21623XXSP,2013-01-16 06:07:00,
2013-01-16 01:12:00,25.3,20.3,30.10,NW,315,0.0,0.0,81,0.00,,,0.00,WUHU21623XXSP,2013-01-16 06:12:00,
2013-01-16 01:17:00,25.0,20.0,30.10,NW,315,0.0,0.0,81,0.00,,,0.00,WUHU21623XXSP,2013-01-16 06:17:00,
2013-01-16 01:22:00,24.8,19.9,30.10,NW,315,0.0,0.0,81,0.00,,,0.00,WUHU21623XXSP,2013-01-16 06:22:00,
2013-01-16 01:27:00,24.6,19.7,30.10,NW,315,0.0,0.0,81,0.00,,,0.00,WUHU21623XXSP,2013-01-16 06:27:00,
2013-01-16 01:32:00,24.4,19.5,30.11,NW,315,0.0,0.0,81,0.00,,,0.00,WUHU21623XXSP,2013-01-16 06:32:00,
2013-01-16 01:37:00,24.4,19.5,30.11,NW,315,0.0,0.0,81,0.00,,,0.00,WUHU21623XXSP,2013-01-16 06:37:00,
2013-01-16 01:42:00,24.1,19.1,30.10,NW,315,0.0,0.0,81,0.00,,,0.00,WUHU21623XXSP,2013-01-16 06:42:00,
2013-01-16 01:47:00,23.9,19.2,30.10,NW,315,0.0,0.0,82,0.00,,,0.00,WUHU21623XXSP,2013-01-16 06:47:00,
2013-01-16 01:52:00,24.1,19.4,30.10,NW,315,0.0,0.0,82,0.00,,,0.00,WUHU21623XXSP,2013-01-16 06:52:00,
2013-01-16 01:57:00,24.1,19.4,30.10,NW,315,0.0,0.0,82,0.00,,,0.00,WUHU21623XXSP,2013-01-16 06:57:00,
2013-01-16 01:59:00,24.1,19.4,30.10,NW,315,0.0,0.0,82,0.00,,,0.00,WUHU21623XXSP,2013-01-16 06:59:00,
2013-01-16 02:02:00,24.1,19.4,30.10,NW,315,0.0,0.0,82,0.00,,,0.00,WUHU21623XXSP,2013-01-16 07:02:00,
2013-01-16 02:07:00,24.1,19.4,30.09,NW,315,0.0,0.0,82,0.00,,,0.00,WUHU21623XXSP,2013-01-16 07:07:00,
2013-01-16 02:12:00,24.4,19.8,30.10,NW,315,0.0,0.0,82,0.00,,,0.00,WUHU21623XXSP,2013-01-16 07:12:00,
2013-01-16 02:17:00,24.4,20.0,30.09,NW,315,0.0,0.0,83,0.00,,,0.00,WUHU21623XXSP,2013-01-16 07:17:00,
2013-01-16 02:22:00,24.4,20.0,30.09,NW,315,0.0,0.0,83,0.00,,,0.00,WUHU21623XXSP,2013-01-16 07:22:00,
2013-01-16 02:27:00,24.6,20.2,30.09,NW,315,0.0,0.0,83,0.00,,,0.00,WUHU21623XXSP,2013-01-16 07:27:00,
2013-01-16 02:32:00,25.0,20.6,30.09,NW,315,0.0,0.0,83,0.00,,,0.00,WUHU21623XXSP,2013-01-16 07:32:00,
2013-01-16 02:38:00,25.0,20.6,30.09,NW,315,0.0,0.0,83,0.00,,,0.00,WUHU21623XXSP,2013-01-16 07:38:00,
2013-01-16 02:43:00,25.0,20.6,30.08,NW,315,0.0,0.0,83,0.00,,,0.00,WUHU21623XXSP,2013-01-16 07:43:00,
2013-01-16 02:48:00,25.0,20.6,30.07,NW,315,0.0,0.0,83,0.00,,,0.00,WUHU21623XXSP,2013-01-16 07:48:00,
2013-01-16 02:53:00,24.8,20.4,30.07,NW,315,0.0,0.0,83,0.00,,,0.00,WUHU21623XXSP,2013-01-16 07:53:00,
2013-01-16 02:58:00,24.6,20.2,30.08,NW,315,0.0,0.0,83,0.00,,,0.00,WUHU21623XXSP,2013-01-16 07:58:00,
2013-01-16 02:59:00,24.6,20.2,30.08,NW,315,0.0,0.0,83,0.00,,,0.00,WUHU21623XXSP,2013-01-16 07:59:00,
2013-01-16 03:03:00,24.6,20.2,30.08,NW,315,0.0,0.0,83,0.00,,,0.00,WUHU21623XXSP,2013-01-16 08:03:00,
2013-01-16 03:08:00,24.6,20.2,30.08,NW,315,0.0,0.0,83,0.00,,,0.00,WUHU21623XXSP,2013-01-16 08:08:00,
2013-01-16 03:13:00,24.6,20.2,30.08,NW,315,0.0,0.0,83,0.00,,,0.00,WUHU21623XXSP,2013-01-16 08:13:00,
2013-01-16 03:18:00,24.6,20.2,30.09,NW,315,0.0,0.0,83,0.00,,,0.00,WUHU21623XXSP,2013-01-16 08:18:00,
2013-01-16 03:23:00,24.6,20.2,30.09,NW,315,0.0,0.0,83,0.00,,,0.00,WUHU21623XXSP,2013-01-16 08:23:00,
2013-01-16 03:28:00,24.6,20.5,30.08,NW,315,0.0,0.0,84,0.00,,,0.00,WUHU21623XXSP,2013-01-16 08:28:00,
2013-01-16 03:33:00,24.6,20.5,30.07,NW,315,0.0,0.0,84,0.00,,,0.00,WUHU21623XXSP,2013-01-16 08:33:00,
2013-01-16 03:38:00,24.6,20.5,30.08,NW,315,0.0,0.0,84,0.00,,,0.00,WUHU21623XXSP,2013-01-16 08:38:00,
2013-01-16 03:43:00,25.0,20.8,30.07,NW,315,0.0,0.0,84,0.00,,,0.00,WUHU21623XXSP,2013-01-16 08:43:00,
2013-01-16 03:48:00,25.2,20.8,30.07,NW,315,0.0,0.0,84,0.00,,,0.00,WUHU21623XXSP,2013-01-16 08:48:00,
2013-01-16 03:53:00,25.5,21.3,30.06,NW,315,0.0,0.0,84,0.00,,,0.00,WUHU21623XXSP,2013-01-16 08:53:00,
2013-01-16 03:58:00,25.5,21.3,30.06,NW,315,0.0,0.0,84,0.00,,,0.00,WUHU21623XXSP,2013-01-16 08:58:00,
2013-01-16 03:59:00,25.7,21.5,30.05,NW,315,0.0,0.0,84,0.00,,,0.00,WUHU21623XXSP,2013-01-16 08:59:00,
2013-01-16 04:03:00,25.7,21.5,30.06,NW,315,0.0,0.0,84,0.00,,,0.00,WUHU21623XXSP,2013-01-16 09:03:00,
2013-01-16 04:08:00,25.9,21.7,30.06,NW,315,1.3,1.3,84,0.00,,,0.00,WUHU21623XXSP,2013-01-16 09:08:00,
2013-01-16 04:13:00,25.9,21.7,30.05,NW,315,2.2,2.2,84,0.00,,,0.00,WUHU21623XXSP,2013-01-16 09:13:00,
2013-01-16 04:18:00,26.1,22.1,30.05,NW,315,2.5,2.5,85,0.00,,,0.00,WUHU21623XXSP,2013-01-16 09:18:00,
2013-01-16 04:23:00,26.1,22.1,30.05,NW,315,2.5,2.9,85,0.00,,,0.00,WUHU21623XXSP,2013-01-16 09:23:00,
2013-01-16 04:28:00,26.2,22.3,30.05,NW,315,1.1,2.9,85,0.00,,,0.00,WUHU21623XXSP,2013-01-16 09:28:00,
2013-01-16 04:33:00,26.2,22.3,30.07,NW,315,1.3,2.9,85,0.00,,,0.00,WUHU21623XXSP,2013-01-16 09:33:00,
2013-01-16 04:38:00,26.2,22.3,30.07,NW,315,0.0,2.9,85,0.00,,,0.00,WUHU21623XXSP,2013-01-16 09:38:00,
2013-01-16 04:43:00,26.2,22.3,30.06,NW,315,0.0,1.3,85,0.00,,,0.00,WUHU21623XXSP,2013-01-16 09:43:00,
2013-01-16 04:49:00,26.1,22.1,30.05,NW,315,0.0,0.0,85,0.00,,,0.00,WUHU21623XXSP,2013-01-16 09:49:00,
2013-01-16 04:54:00,26.1,22.1,30.05,NW,315,0.0,0.0,85,0.00,,,0.00,WUHU21623XXSP,2013-01-16 09:54:00,
2013-01-16 04:59:00,26.1,22.1,30.05,NW,315,0.0,0.0,85,0.00,,,0.00,WUHU21623XXSP,2013-01-16 09:59:00,
2013-01-16 05:04:00,26.1,22.1,30.05,NW,315,0.0,0.0,85,0.00,,,0.00,WUHU21623XXSP,2013-01-16 10:04:00,
2013-01-16 05:09:00,25.9,22.0,30.05,NW,315,0.0,0.0,85,0.00,,,0.00,WUHU21623XXSP,2013-01-16 10:09:00,
2013-01-16 05:14:00,25.9,22.0,30.05,NW,315,0.0,0.0,85,0.00,,,0.00,WUHU21623XXSP,2013-01-16 10:14:00,
2013-01-16 05:19:00,25.9,22.0,30.04,NW,315,0.0,0.0,85,0.00,,,0.00,WUHU21623XXSP,2013-01-16 10:19:00,
2013-01-16 05:24:00,25.9,22.0,30.04,NW,315,0.0,0.0,85,0.00,,,0.00,WUHU21623XXSP,2013-01-16 10:24:00,
2013-01-16 05:29:00,25.9,22.0,30.04,NW,315,0.0,0.4,85,0.00,,,0.00,WUHU21623XXSP,2013-01-16 10:29:00,
2013-01-16 05:34:00,25.9,22.0,30.05,NW,315,0.0,0.4,85,0.00,,,0.00,WUHU21623XXSP,2013-01-16 10:34:00,
2013-01-16 05:39:00,25.7,22.0,30.05,NW,315,0.0,0.0,86,0.00,,,0.00,WUHU21623XXSP,2013-01-16 10:39:00,
2013-01-16 05:44:00,25.7,22.1,30.04,NW,315,0.0,0.0,86,0.00,,,0.00,WUHU21623XXSP,2013-01-16 10:44:00,
2013-01-16 05:49:00,25.7,22.1,30.04,NW,315,0.0,0.0,86,0.00,,,0.00,WUHU21623XXSP,2013-01-16 10:49:00,
2013-01-16 05:54:00,25.5,22.1,30.04,NW,315,0.0,0.0,86,0.00,,,0.00,WUHU21623XXSP,2013-01-16 10:54:00,
2013-01-16 05:59:00,25.7,22.1,30.05,NW,315,0.0,0.0,86,0.00,,,0.00,WUHU21623XXSP,2013-01-16 10:59:00,
2013-01-16 06:04:00,25.7,22.1,30.05,NW,315,0.0,0.0,86,0.00,,,0.00,WUHU21623XXSP,2013-01-16 11:04:00,
2013-01-16 06:09:00,25.7,22.1,30.05,NW,315,0.0,0.0,86,0.00,,,0.00,WUHU21623XXSP,2013-01-16 11:09:00,
2013-01-16 06:14:00,25.7,22.1,30.05,NW,315,0.0,0.0,86,0.00,,,0.00,WUHU21623XXSP,2013-01-16 11:14:00,
2013-01-16 06:19:00,25.7,22.1,30.05,NW,315,0.0,0.0,86,0.00,,,0.00,WUHU21623XXSP,2013-01-16 11:19:00,
2013-01-16 06:24:00,25.7,22.1,30.06,NW,315,0.0,0.0,86,0.00,,,0.00,WUHU21623XXSP,2013-01-16 11:24:00,
2013-01-16 06:29:00,25.9,22.2,30.05,NW,315,0.0,0.0,86,0.00,,,0.00,WUHU21623XXSP,2013-01-16 11:29:00,
2013-01-16 06:34:00,25.7,22.1,30.05,NW,315,0.0,0.0,86,0.00,,,0.00,WUHU21623XXSP,2013-01-16 11:34:00,
2013-01-16 06:39:00,25.7,22.1,30.05,NW,315,0.0,0.0,86,0.00,,,0.00,WUHU21623XXSP,2013-01-16 11:39:00,
2013-01-16 06:44:00,25.9,22.2,30.06,NW,315,0.0,0.0,86,0.00,,,0.00,WUHU21623XXSP,2013-01-16 11:44:00,
2013-01-16 06:49:00,25.9,22.2,30.05,NW,315,0.0,0.0,86,0.00,,,0.00,WUHU21623XXSP,2013-01-16 11:49:00,
2013-01-16 06:54:00,25.9,22.2,30.05,NW,315,0.0,0.0,86,0.00,,,0.00,WUHU21623XXSP,2013-01-16 11:54:00,
2013-01-16 06:59:00,25.9,22.2,30.06,NW,315,0.0,0.0,86,0.00,,,0.00,WUHU21623XXSP,2013-01-16 11:59:00,
2013-01-16 07:04:00,25.9,22.2,30.06,NW,315,0.0,0.0,86,0.00,,,0.00,WUHU21623XXSP,2013-01-16 12:04:00,
2013-01-16 07:09:00,25.7,22.1,30.06,NW,315,0.0,0.0,86,0.00,,,0.00,WUHU21623XXSP,2013-01-16 12:09:00,
2013-01-16 07:14:00,25.9,22.2,30.06,NW,315,0.0,0.0,86,0.00,,,0.00,WUHU21623XXSP,2013-01-16 12:14:00,
2013-01-16 07:19:00,25.9,22.2,30.06,NW,315,0.0,0.0,86,0.00,,,0.00,WUHU21623XXSP,2013-01-16 12:19:00,
2013-01-16 07:24:00,25.9,22.2,30.06,NW,315,0.0,0.0,86,0.00,,,0.00,WUHU21623XXSP,2013-01-16 12:24:00,
2013-01-16 07:29:00,25.9,22.2,30.06,NW,315,0.0,0.0,86,0.00,,,0.00,WUHU21623XXSP,2013-01-16 12:29:00,
2013-01-16 07:34:00,25.9,22.2,30.06,NW,315,0.0,0.0,86,0.00,,,0.00,WUHU21623XXSP,2013-01-16 12:34:00,
2013-01-16 07:39:00,25.9,22.2,30.05,NW,315,0.0,0.0,86,0.00,,,0.00,WUHU21623XXSP,2013-01-16 12:39:00,
2013-01-16 07:44:00,26.1,22.2,30.05,NW,315,0.0,0.0,86,0.00,,,0.00,WUHU21623XXSP,2013-01-16 12:44:00,
2013-01-16 07:49:00,26.2,22.4,30.05,NW,315,0.0,0.0,86,0.00,,,0.00,WUHU21623XXSP,2013-01-16 12:49:00,
2013-01-16 07:54:00,26.2,22.6,30.04,NW,315,0.0,0.0,86,0.00,,,0.00,WUHU21623XXSP,2013-01-16 12:54:00,
2013-01-16 07:59:00,26.2,22.6,30.04,NW,315,0.0,0.0,86,0.00,,,0.00,WUHU21623XXSP,2013-01-16 12:59:00,
2013-01-16 08:04:00,26.2,22.6,30.05,NW,315,0.0,0.0,86,0.00,,,0.00,WUHU21623XXSP,2013-01-16 13:04:00,
2013-01-16 08:09:00,26.1,22.6,30.04,NW,315,0.0,0.0,86,0.00,,,0.00,WUHU21623XXSP,2013-01-16 13:09:00,
2013-01-16 08:14:00,26.1,22.4,30.04,NW,315,0.0,0.0,86,0.00,,,0.00,WUHU21623XXSP,2013-01-16 13:14:00,
2013-01-16 08:19:00,26.1,22.4,30.04,NW,315,0.0,0.0,86,0.00,,,0.00,WUHU21623XXSP,2013-01-16 13:19:00,
2013-01-16 08:24:00,26.1,22.4,30.04,NW,315,0.0,0.0,86,0.00,,,0.00,WUHU21623XXSP,2013-01-16 13:24:00,
2013-01-16 08:29:00,26.1,22.4,30.04,NW,315,0.0,0.0,86,0.00,,,0.00,WUHU21623XXSP,2013-01-16 13:29:00,
2013-01-16 08:34:00,26.2,22.6,30.04,NW,315,0.0,0.0,86,0.00,,,0.00,WUHU21623XXSP,2013-01-16 13:34:00,
2013-01-16 08:39:00,26.2,22.6,30.04,NW,315,0.0,0.0,86,0.00,,,0.00,WUHU21623XXSP,2013-01-16 13:39:00,
2013-01-16 08:44:00,26.2,22.6,30.05,NW,315,0.0,0.0,86,0.00,,,0.00,WUHU21623XXSP,2013-01-16 13:44:00,
2013-01-16 08:49:00,26.4,22.7,30.04,NW,315,0.0,0.0,86,0.00,,,0.00,WUHU21623XXSP,2013-01-16 13:49:00,
2013-01-16 08:54:00,26.4,22.7,30.05,NW,315,0.0,0.0,86,0.00,,,0.00,WUHU21623XXSP,2013-01-16 13:54:00,
2013-01-16 08:59:00,26.4,22.7,30.05,NW,315,0.0,0.0,86,0.00,,,0.00,WUHU21623XXSP,2013-01-16 13:59:00,
2013-01-16 09:04:00,26.4,22.7,30.06,NW,315,0.0,0.0,86,0.00,,,0.00,WUHU21623XXSP,2013-01-16 14:04:00,
2013-01-16 09:09:00,26.4,22.7,30.06,NW,315,0.0,0.0,86,0.00,,,0.00,WUHU21623XXSP,2013-01-16 14:09:00,
2013-01-16 09:14:00,26.2,22.6,30.07,NW,315,0.0,0.0,86,0.00,,,0.00,WUHU21623XXSP,2013-01-16 14:14:00,
2013-01-16 09:19:00,26.1,22.6,30.07,NW,315,0.0,0.0,86,0.00,,,0.00,WUHU21623XXSP,2013-01-16 14:19:00,
2013-01-16 09:24:00,26.1,22.4,30.08,NW,315,0.0,0.0,86,0.00,,,0.00,WUHU21623XXSP,2013-01-16 14:24:00,
2013-01-16 09:29:00,26.2,22.6,30.08,NW,315,0.0,0.0,86,0.00,,,0.00,WUHU21623XXSP,2013-01-16 14:29:00,
2013-01-16 09:34:00,26.2,22.6,30.08,NW,315,0.0,0.0,86,0.00,,,0.00,WUHU21623XXSP,2013-01-16 14:34:00,
2013-01-16 09:39:00,26.4,22.7,30.08,NW,315,0.0,0.0,86,0.00,,,0.00,WUHU21623XXSP,2013-01-16 14:39:00,
2013-01-16 09:44:00,26.6,22.7,30.07,NW,315,0.0,0.0,86,0.00,,,0.00,WUHU21623XXSP,2013-01-16 14:44:00,
2013-01-16 09:49:00,26.6,22.9,30.07,NW,315,0.0,0.0,86,0.00,,,0.00,WUHU21623XXSP,2013-01-16 14:49:00,
2013-01-16 09:54:00,26.8,23.1,30.07,NW,315,0.0,0.0,86,0.00,,,0.00,WUHU21623XXSP,2013-01-16 14:54:00,
2013-01-16 09:59:00,27.1,23.5,30.06,NW,315,0.0,0.0,86,0.00,,,0.00,WUHU21623XXSP,2013-01-16 14:59:00,
2013-01-16 10:04:00,27.7,24.3,30.07,NW,315,0.0,0.0,87,0.00,,,0.00,WUHU21623XXSP,2013-01-16 15:04:00,
2013-01-16 10:09:00,27.7,24.7,30.07,NW,315,0.0,0.0,87,0.00,,,0.00,WUHU21623XXSP,2013-01-16 15:09:00,
2013-01-16 10:14:00,28.0,24.7,30.07,NW,315,0.0,0.0,87,0.00,,,0.00,WUHU21623XXSP,2013-01-16 15:14:00,
2013-01-16 10:19:00,28.0,24.4,30.06,NW,315,0.0,0.0,86,0.00,,,0.00,WUHU21623XXSP,2013-01-16 15:19:00,
2013-01-16 10:24:00,28.2,24.5,30.06,NW,315,0.0,0.0,86,0.00,,,0.00,WUHU21623XXSP,2013-01-16 15:24:00,
2013-01-16 10:29:00,28.6,24.9,30.06,NW,315,0.0,2.2,86,0.00,,,0.00,WUHU21623XXSP,2013-01-16 15:29:00,
2013-01-16 10:34:00,28.9,25.1,30.06,NW,315,0.0,2.2,85,0.00,,,0.00,WUHU21623XXSP,2013-01-16 15:34:00,
2013-01-16 10:39:00,29.3,25.2,30.06,NW,315,4.7,4.7,85,0.00,,,0.00,WUHU21623XXSP,2013-01-16 15:39:00,
2013-01-16 10:44:00,29.8,25.9,30.06,NW,315,0.0,4.7,85,0.00,,,0.00,WUHU21623XXSP,2013-01-16 15:44:00,
2013-01-16 10:49:00,30.0,25.8,30.07,NW,315,4.3,4.7,84,0.00,,,0.00,WUHU21623XXSP,2013-01-16 15:49:00,
2013-01-16 10:54:00,30.6,26.3,30.06,NW,315,1.8,4.3,84,0.00,,,0.00,WUHU21623XXSP,2013-01-16 15:54:00,
2013-01-16 10:59:00,30.9,26.7,30.06,NW,315,5.8,5.8,84,0.00,,,0.00,WUHU21623XXSP,2013-01-16 15:59:00,
2013-01-16 11:04:00,31.1,26.3,30.06,NW,315,0.0,5.8,82,0.00,,,0.00,WUHU21623XXSP,2013-01-16 16:04:00,
2013-01-16 11:09:00,31.3,26.2,30.06,NW,315,0.0,0.0,81,0.00,,,0.00,WUHU21623XXSP,2013-01-16 16:09:00,
2013-01-16 11:14:00,31.5,26.3,30.06,NW,315,5.4,5.4,81,0.00,,,0.00,WUHU21623XXSP,2013-01-16 16:14:00,
2013-01-16 11:19:00,31.8,26.4,30.06,NW,315,5.4,6.0,80,0.00,,,0.00,WUHU21623XXSP,2013-01-16 16:19:00,
2013-01-16 11:24:00,32.0,26.4,30.06,NW,315,0.0,6.0,79,0.00,,,0.00,WUHU21623XXSP,2013-01-16 16:24:00,
2013-01-16 11:29:00,32.5,26.3,30.06,NW,315,0.0,0.0,78,0.00,,,0.00,WUHU21623XXSP,2013-01-16 16:29:00,
2013-01-16 11:34:00,32.9,26.3,30.06,NW,315,0.0,0.0,77,0.00,,,0.00,WUHU21623XXSP,2013-01-16 16:34:00,
2013-01-16 11:39:00,33.1,26.3,30.06,NW,315,0.0,0.0,76,0.00,,,0.00,WUHU21623XXSP,2013-01-16 16:39:00,
2013-01-16 11:44:00,33.4,26.4,30.06,NW,315,0.0,0.0,76,0.00,,,0.00,WUHU21623XXSP,2013-01-16 16:44:00,
2013-01-16 11:49:00,33.6,26.3,30.06,NW,315,0.0,0.0,75,0.00,,,0.00,WUHU21623XXSP,2013-01-16 16:49:00,
2013-01-16 11:54:00,33.6,26.4,30.06,NW,315,0.0,0.0,75,0.00,,,0.00,WUHU21623XXSP,2013-01-16 16:54:00,
2013-01-16 11:59:00,34.0,26.8,30.06,NW,315,0.0,0.0,74,0.00,,,0.00,WUHU21623XXSP,2013-01-16 16:59:00,
2013-01-16 12:04:00,34.9,27.0,30.05,WNW,292,0.0,0.9,73,0.00,,,0.00,WUHU21623XXSP,2013-01-16 17:04:00,
2013-01-16 12:09:00,35.2,27.4,30.05,WNW,292,0.2,0.9,73,0.00,,,0.00,WUHU21623XXSP,2013-01-16 17:09:00,
2013-01-16 12:14:00,35.4,27.2,30.05,West,270,2.0,2.0,72,0.00,,,0.00,WUHU21623XXSP,2013-01-16 17:14:00,
2013-01-16 12:19:00,35.8,27.0,30.04,West,270,0.0,2.0,70,0.00,,,0.00,WUHU21623XXSP,2013-01-16 17:19:00,
2013-01-16 12:24:00,35.8,27.0,30.04,West,270,0.0,1.1,70,0.00,,,0.00,WUHU21623XXSP,2013-01-16 17:24:00,
2013-01-16 12:29:00,35.8,26.6,30.04,WSW,247,0.0,1.1,69,0.00,,,0.00,WUHU21623XXSP,2013-01-16 17:29:00,
2013-01-16 12:34:00,35.8,26.6,30.04,WSW,247,4.3,4.3,69,0.00,,,0.00,WUHU21623XXSP,2013-01-16 17:34:00,
2013-01-16 12:39:00,36.0,26.8,30.04,West,270,2.5,4.3,69,0.00,,,0.00,WUHU21623XXSP,2013-01-16 17:39:00,
2013-01-16 12:44:00,36.1,26.6,30.03,WSW,247,3.1,3.1,68,0.00,,,0.00,WUHU21623XXSP,2013-01-16 17:44:00,
2013-01-16 12:49:00,36.3,26.8,30.03,WSW,247,0.0,3.1,68,0.00,,,0.00,WUHU21623XXSP,2013-01-16 17:49:00,
2013-01-16 12:54:00,36.7,27.1,30.03,West,270,0.0,1.8,68,0.00,,,0.00,WUHU21623XXSP,2013-01-16 17:54:00,
2013-01-16 12:59:00,36.7,26.7,30.03,West,270,0.0,0.0,67,0.00,,,0.00,WUHU21623XXSP,2013-01-16 17:59:00,
2013-01-16 13:04:00,36.7,26.0,30.03,West,270,0.0,4.3,65,0.00,,,0.00,WUHU21623XXSP,2013-01-16 18:04:00,
2013-01-16 13:09:00,36.5,25.8,30.02,WSW,247,0.0,5.4,65,0.00,,,0.00,WUHU21623XXSP,2013-01-16 18:09:00,
2013-01-16 13:14:00,36.7,26.0,30.02,WSW,247,0.2,5.4,65,0.00,,,0.00,WUHU21623XXSP,2013-01-16 18:14:00,
2013-01-16 13:19:00,37.0,26.3,30.01,West,270,0.0,1.6,65,0.00,,,0.00,WUHU21623XXSP,2013-01-16 18:19:00,
2013-01-16 13:24:00,37.2,26.1,30.01,WSW,247,5.4,5.4,64,0.00,,,0.00,WUHU21623XXSP,2013-01-16 18:24:00,
2013-01-16 13:29:00,37.2,26.1,30.01,SW,225,7.4,7.4,64,0.00,,,0.00,WUHU21623XXSP,2013-01-16 18:29:00,
2013-01-16 13:34:00,37.6,26.5,30.01,WSW,247,0.0,7.4,64,0.00,,,0.00,WUHU21623XXSP,2013-01-16 18:34:00,
2013-01-16 13:39:00,37.6,25.7,30.00,WSW,247,0.0,6.3,62,0.00,,,0.00,WUHU21623XXSP,2013-01-16 18:39:00,
2013-01-16 13:44:00,37.2,25.4,30.00,SW,225,5.4,6.3,62,0.00,,,0.00,WUHU21623XXSP,2013-01-16 18:44:00,
2013-01-16 13:49:00,37.2,25.4,30.00,WSW,247,0.0,5.4,62,0.00,,,0.00,WUHU21623XXSP,2013-01-16 18:49:00,
2013-01-16 13:54:00,37.2,25.4,29.99,SW,225,4.9,4.9,62,0.00,,,0.00,WUHU21623XXSP,2013-01-16 18:54:00,
2013-01-16 13:59:00,37.2,25.4,30.00,SSW,202,4.0,4.9,62,0.00,,,0.00,WUHU21623XXSP,2013-01-16 18:59:00,
2013-01-16 14:04:00,37.2,25.4,29.99,SW,225,4.5,4.5,62,0.00,,,0.00,WUHU21623XXSP,2013-01-16 19:04:00,
2013-01-16 14:09:00,37.2,25.0,30.00,SW,225,4.5,4.5,61,0.00,,,0.00,WUHU21623XXSP,2013-01-16 19:09:00,
2013-01-16 14:14:00,37.2,25.0,29.99,SW,225,0.9,5.6,61,0.00,,,0.00,WUHU21623XXSP,2013-01-16 19:14:00,
2013-01-16 14:19:00,37.2,25.0,29.99,SW,225,1.1,5.6,61,0.00,,,0.00,WUHU21623XXSP,2013-01-16 19:19:00,
2013-01-16 14:24:00,37.2,25.0,29.99,SW,225,2.2,2.2,61,0.00,,,0.00,WUHU21623XXSP,2013-01-16 19:24:00,
2013-01-16 14:29:00,36.9,24.7,30.00,South,180,7.4,7.4,61,0.00,,,0.00,WUHU21623XXSP,2013-01-16 19:29:00,
2013-01-16 14:34:00,36.9,25.1,30.00,South,180,0.0,7.4,62,0.00,,,0.00,WUHU21623XXSP,2013-01-16 19:34:00,
2013-01-16 14:39:00,37.0,25.2,30.00,SW,225,4.0,7.4,62,0.00,,,0.00,WUHU21623XXSP,2013-01-16 19:39:00,
2013-01-16 14:44:00,37.0,25.2,30.00,SW,225,2.0,4.0,62,0.00,,,0.00,WUHU21623XXSP,2013-01-16 19:44:00,
2013-01-16 14:49:00,37.0,25.2,30.00,SW,225,3.8,3.8,62,0.00,,,0.00,WUHU21623XXSP,2013-01-16 19:49:00,
2013-01-16 14:54:00,37.0,25.2,30.00,SW,225,2.2,3.8,62,0.00,,,0.00,WUHU21623XXSP,2013-01-16 19:54:00,
2013-01-16 14:59:00,36.7,25.1,29.99,SW,225,0.0,3.4,62,0.00,,,0.00,WUHU21623XXSP,2013-01-16 19:59:00,
2013-01-16 15:04:00,36.7,24.9,29.99,SSW,202,0.0,1.3,62,0.00,,,0.00,WUHU21623XXSP,2013-01-16 20:04:00,
2013-01-16 15:09:00,36.3,24.7,29.99,SW,225,0.0,4.3,62,0.00,,,0.00,WUHU21623XXSP,2013-01-16 20:09:00,
2013-01-16 15:14:00,36.3,24.5,29.99,SSW,202,0.0,4.3,62,0.00,,,0.00,WUHU21623XXSP,2013-01-16 20:14:00,
2013-01-16 15:19:00,36.3,24.9,29.99,SSW,202,0.0,0.0,63,0.00,,,0.00,WUHU21623XXSP,2013-01-16 20:19:00,
2013-01-16 15:24:00,36.3,24.5,29.99,SW,225,0.0,0.0,62,0.00,,,0.00,WUHU21623XXSP,2013-01-16 20:24:00,
2013-01-16 15:29:00,36.3,24.9,29.99,SW,225,0.0,2.9,63,0.00,,,0.00,WUHU21623XXSP,2013-01-16 20:29:00,
2013-01-16 15:34:00,36.3,24.9,29.99,SW,225,0.0,2.9,63,0.00,,,0.00,WUHU21623XXSP,2013-01-16 20:34:00,
2013-01-16 15:39:00,36.3,24.9,29.99,SW,225,0.0,0.0,63,0.00,,,0.00,WUHU21623XXSP,2013-01-16 20:39:00,
2013-01-16 15:44:00,36.3,24.9,29.99,South,180,6.5,6.5,63,0.00,,,0.00,WUHU21623XXSP,2013-01-16 20:44:00,
2013-01-16 15:49:00,36.1,25.1,29.98,SSW,202,0.0,6.5,64,0.00,,,0.00,WUHU21623XXSP,2013-01-16 20:49:00,
2013-01-16 15:54:00,36.1,25.5,29.99,SSW,202,0.0,1.8,65,0.00,,,0.00,WUHU21623XXSP,2013-01-16 20:54:00,
2013-01-16 15:59:00,36.0,25.3,29.99,SSW,202,0.0,0.0,65,0.00,,,0.00,WUHU21623XXSP,2013-01-16 20:59:00,
2013-01-16 16:04:00,35.8,25.1,29.99,SSW,202,0.0,0.0,65,0.00,,,0.00,WUHU21623XXSP,2013-01-16 21:04:00,
2013-01-16 16:09:00,35.4,24.8,29.99,SSW,202,0.0,0.0,65,0.00,,,0.00,WUHU21623XXSP,2013-01-16 21:09:00,
2013-01-16 16:14:00,35.2,24.6,30.00,SW,225,0.0,0.0,65,0.00,,,0.00,WUHU21623XXSP,2013-01-16 21:14:00,
2013-01-16 16:19:00,35.2,25.0,30.00,SW,225,0.0,0.0,66,0.00,,,0.00,WUHU21623XXSP,2013-01-16 21:19:00,
2013-01-16 16:24:00,35.2,25.0,30.01,SW,225,0.0,0.0,66,0.00,,,0.00,WUHU21623XXSP,2013-01-16 21:24:00,
2013-01-16 16:29:00,34.9,24.6,30.01,SW,225,0.0,1.3,66,0.00,,,0.00,WUHU21623XXSP,2013-01-16 21:29:00,
2013-01-16 16:34:00,34.9,24.6,30.02,SW,225,0.0,1.3,66,0.00,,,0.00,WUHU21623XXSP,2013-01-16 21:34:00,
2013-01-16 16:39:00,34.9,24.6,30.02,South,180,1.3,1.3,66,0.00,,,0.00,WUHU21623XXSP,2013-01-16 21:39:00,
2013-01-16 16:44:00,34.7,24.4,30.01,South,180,5.1,6.5,66,0.00,,,0.00,WUHU21623XXSP,2013-01-16 21:44:00,
2013-01-16 16:49:00,34.3,24.4,30.02,South,180,0.0,6.5,67,0.00,,,0.00,WUHU21623XXSP,2013-01-16 21:49:00,
2013-01-16 16:54:00,34.3,24.4,30.01,SW,225,0.0,0.0,67,0.00,,,0.00,WUHU21623XXSP,2013-01-16 21:54:00,
2013-01-16 16:59:00,34.2,24.6,30.02,SW,225,0.0,0.0,68,0.00,,,0.00,WUHU21623XXSP,2013-01-16 21:59:00,
2013-01-16 17:04:00,33.8,24.4,30.02,SW,225,0.0,0.0,68,0.00,,,0.00,WUHU21623XXSP,2013-01-16 22:04:00,
2013-01-16 17:09:00,33.6,24.1,30.02,SW,225,0.0,3.6,68,0.00,,,0.00,WUHU21623XXSP,2013-01-16 22:09:00,
2013-01-16 17:14:00,33.4,23.9,30.02,SSW,202,0.0,3.6,68,0.00,,,0.00,WUHU21623XXSP,2013-01-16 22:14:00,
2013-01-16 17:19:00,33.4,23.9,30.02,South,180,6.5,6.5,68,0.00,,,0.00,WUHU21623XXSP,2013-01-16 22:19:00,
2013-01-16 17:24:00,33.3,23.8,30.03,South,180,0.9,6.5,68,0.00,,,0.00,WUHU21623XXSP,2013-01-16 22:24:00,
2013-01-16 17:29:00,33.1,24.0,30.04,SSW,202,9.2,9.2,69,0.00,,,0.00,WUHU21623XXSP,2013-01-16 22:29:00,
2013-01-16 17:34:00,33.3,24.1,30.03,SSW,202,7.4,9.2,69,0.00,,,0.00,WUHU21623XXSP,2013-01-16 22:34:00,
2013-01-16 17:39:00,33.1,24.0,30.03,South,180,7.2,7.4,69,0.00,,,0.00,WUHU21623XXSP,2013-01-16 22:39:00,
2013-01-16 17:44:00,32.9,23.8,30.04,South,180,8.1,8.1,69,0.00,,,0.00,WUHU21623XXSP,2013-01-16 22:44:00,
2013-01-16 17:49:00,32.9,23.8,30.04,South,180,3.1,8.1,69,0.00,,,0.00,WUHU21623XXSP,2013-01-16 22:49:00,
2013-01-16 17:54:00,32.9,23.8,30.03,SSW,202,6.5,6.7,69,0.00,,,0.00,WUHU21623XXSP,2013-01-16 22:54:00,
2013-01-16 17:59:00,32.7,23.6,30.05,South,180,6.7,6.7,69,0.00,,,0.00,WUHU21623XXSP,2013-01-16 22:59:00,
2013-01-16 18:04:00,32.7,23.6,30.04,South,180,6.3,6.9,69,0.00,,,0.00,WUHU21623XXSP,2013-01-16 23:04:00,
2013-01-16 18:09:00,32.7,23.6,30.04,South,180,6.3,6.9,69,0.00,,,0.00,WUHU21623XXSP,2013-01-16 23:09:00,
2013-01-16 18:14:00,32.7,23.6,30.05,SSW,202,6.0,6.5,69,0.00,,,0.00,WUHU21623XXSP,2013-01-16 23:14:00,
2013-01-16 18:19:00,32.5,23.8,30.05,South,180,1.6,6.3,70,0.00,,,0.00,WUHU21623XXSP,2013-01-16 23:19:00,
2013-01-16 18:24:00,32.2,23.5,30.05,SSW,202,7.2,7.2,70,0.00,,,0.00,WUHU21623XXSP,2013-01-16 23:24:00,
2013-01-16 18:29:00,31.8,23.8,30.05,SSW,202,7.6,7.6,72,0.00,,,0.00,WUHU21623XXSP,2013-01-16 23:29:00,
2013-01-16 18:34:00,31.6,23.6,30.04,SSW,202,6.3,7.6,72,0.00,,,0.00,WUHU21623XXSP,2013-01-16 23:34:00,
2013-01-16 18:39:00,31.6,23.6,30.05,SSW,202,4.7,6.7,72,0.00,,,0.00,WUHU21623XXSP,2013-01-16 23:39:00,
2013-01-16 18:44:00,31.6,24.0,30.03,South,180,1.6,6.7,73,0.00,,,0.00,WUHU21623XXSP,2013-01-16 23:44:00,
2013-01-16 18:49:00,31.3,23.6,30.04,South,180,3.4,5.8,73,0.00,,,0.00,WUHU21623XXSP,2013-01-16 23:49:00,
2013-01-16 18:54:00,31.3,23.6,30.05,SSW,202,0.0,3.4,73,0.00,,,0.00,WUHU21623XXSP,2013-01-16 23:54:00,
2013-01-16 18:59:00,31.3,23.6,30.05,SW,225,0.0,3.4,73,0.00,,,0.00,WUHU21623XXSP,2013-01-16 23:59:00,
2013-01-16 19:04:00,31.1,23.4,30.05,SSW,202,0.9,0.9,73,0.00,,,0.00,WUHU21623XXSP,2013-01-17 00:04:00,
2013-01-16 19:09:00,30.9,23.3,30.05,SSW,202,0.0,0.9,73,0.00,,,0.00,WUHU21623XXSP,2013-01-17 00:09:00,
2013-01-16 19:14:00,30.9,23.3,30.05,SSW,202,6.5,6.5,73,0.00,,,0.00,WUHU21623XXSP,2013-01-17 00:14:00,
2013-01-16 19:19:00,30.9,23.3,30.06,SSW,202,0.0,6.5,73,0.00,,,0.00,WUHU21623XXSP,2013-01-17 00:19:00,
2013-01-16 19:24:00,30.7,23.4,30.06,South,180,2.2,6.5,74,0.00,,,0.00,WUHU21623XXSP,2013-01-17 00:24:00,
2013-01-16 19:29:00,30.7,23.4,30.05,SSW,202,7.2,7.2,74,0.00,,,0.00,WUHU21623XXSP,2013-01-17 00:29:00,
2013-01-16 19:34:00,30.9,23.6,30.06,South,180,4.0,7.2,74,0.00,,,0.00,WUHU21623XXSP,2013-01-17 00:34:00,
2013-01-16 19:39:00,30.9,23.6,30.06,South,180,0.0,7.2,74,0.00,,,0.00,WUHU21623XXSP,2013-01-17 00:39:00,
2013-01-16 19:44:00,30.7,23.4,30.06,South,180,0.0,0.0,74,0.00,,,0.00,WUHU21623XXSP,2013-01-17 00:44:00,
2013-01-16 19:49:00,30.6,23.2,30.07,SSW,202,0.0,0.0,74,0.00,,,0.00,WUHU21623XXSP,2013-01-17 00:49:00,
2013-01-16 19:54:00,30.4,23.0,30.06,SSW,202,0.0,0.0,74,0.00,,,0.00,WUHU21623XXSP,2013-01-17 00:54:00,
2013-01-16 19:59:00,30.4,23.0,30.08,SW,225,0.0,0.0,74,0.00,,,0.00,WUHU21623XXSP,2013-01-17 00:59:00,
2013-01-16 20:04:00,30.4,23.0,30.07,SW,225,0.0,1.3,74,0.00,,,0.00,WUHU21623XXSP,2013-01-17 01:04:00,
2013-01-16 20:09:00,30.4,23.0,30.08,SW,225,0.0,1.3,74,0.00,,,0.00,WUHU21623XXSP,2013-01-17 01:09:00,
2013-01-16 20:14:00,30.7,23.4,30.08,SSW,202,0.0,1.1,74,0.00,,,0.00,WUHU21623XXSP,2013-01-17 01:14:00,
2013-01-16 20:19:00,30.9,23.6,30.08,South,180,0.0,1.1,74,0.00,,,0.00,WUHU21623XXSP,2013-01-17 01:19:00,
2013-01-16 20:24:00,31.3,23.9,30.07,SSW,202,4.3,4.9,74,0.00,,,0.00,WUHU21623XXSP,2013-01-17 01:24:00,
2013-01-16 20:29:00,31.3,23.6,30.08,SSW,202,0.9,4.9,73,0.00,,,0.00,WUHU21623XXSP,2013-01-17 01:29:00,
2013-01-16 20:34:00,31.3,23.6,30.07,SW,225,3.8,4.0,73,0.00,,,0.00,WUHU21623XXSP,2013-01-17 01:34:00,
2013-01-16 20:39:00,31.5,23.8,30.07,SW,225,4.3,4.3,73,0.00,,,0.00,WUHU21623XXSP,2013-01-17 01:39:00,
2013-01-16 20:44:00,31.6,24.0,30.07,SSW,202,2.2,6.0,73,0.00,,,0.00,WUHU21623XXSP,2013-01-17 01:44:00,
2013-01-16 20:49:00,31.6,24.0,30.07,SSW,202,2.2,6.0,73,0.00,,,0.00,WUHU21623XXSP,2013-01-17 01:49:00,
2013-01-16 20:54:00,31.8,23.6,30.07,SSW,202,2.2,2.2,72,0.00,,,0.00,WUHU21623XXSP,2013-01-17 01:54:00,
2013-01-16 20:59:00,31.8,23.8,30.07,SW,225,2.0,7.6,72,0.00,,,0.00,WUHU21623XXSP,2013-01-17 01:59:00,
2013-01-16 21:04:00,31.8,23.8,30.06,SW,225,0.0,7.6,72,0.00,,,0.00,WUHU21623XXSP,2013-01-17 02:04:00,
2013-01-16 21:09:00,31.8,24.2,30.07,SW,225,5.4,6.0,73,0.00,,,0.00,WUHU21623XXSP,2013-01-17 02:09:00,
2013-01-16 21:14:00,31.8,24.2,30.07,SW,225,4.3,5.4,73,0.00,,,0.00,WUHU21623XXSP,2013-01-17 02:14:00,
2013-01-16 21:19:00,31.8,24.2,30.08,SW,225,4.3,4.3,72,0.00,,,0.00,WUHU21623XXSP,2013-01-17 02:19:00,
2013-01-16 21:24:00,31.8,23.8,30.08,SW,225,4.9,4.9,72,0.00,,,0.00,WUHU21623XXSP,2013-01-17 02:24:00,
2013-01-16 21:29:00,32.0,24.0,30.08,SW,225,4.7,4.9,72,0.00,,,0.00,WUHU21623XXSP,2013-01-17 02:29:00,
2013-01-16 21:34:00,32.2,24.2,30.08,SW,225,3.6,4.9,72,0.00,,,0.00,WUHU21623XXSP,2013-01-17 02:34:00,
2013-01-16 21:39:00,32.2,24.2,30.08,WSW,247,3.4,3.6,72,0.00,,,0.00,WUHU21623XXSP,2013-01-17 02:39:00,
2013-01-16 21:44:00,32.2,24.2,30.08,SW,225,2.0,5.8,72,0.00,,,0.00,WUHU21623XXSP,2013-01-17 02:44:00,
2013-01-16 21:49:00,32.2,24.5,30.08,SW,225,2.0,5.8,73,0.00,,,0.00,WUHU21623XXSP,2013-01-17 02:49:00,
2013-01-16 21:54:00,32.2,24.5,30.08,SW,225,3.1,3.1,73,0.00,,,0.00,WUHU21623XXSP,2013-01-17 02:54:00,
2013-01-16 21:59:00,32.2,24.5,30.08,SW,225,0.0,3.1,73,0.00,,,0.00,WUHU21623XXSP,2013-01-17 02:59:00,
2013-01-16 22:04:00,32.2,24.5,30.08,SW,225,5.6,5.6,73,0.00,,,0.00,WUHU21623XXSP,2013-01-17 03:04:00,
2013-01-16 22:09:00,32.2,24.5,30.08,SW,225,3.6,5.6,73,0.00,,,0.00,WUHU21623XXSP,2013-01-17 03:09:00,
2013-01-16 22:14:00,32.2,24.5,30.08,SSW,202,3.4,4.0,73,0.00,,,0.00,WUHU21623XXSP,2013-01-17 03:14:00,
2013-01-16 22:19:00,32.2,24.5,30.09,SW,225,3.4,4.0,73,0.00,,,0.00,WUHU21623XXSP,2013-01-17 03:19:00,
2013-01-16 22:24:00,32.2,24.5,30.09,SW,225,0.0,3.4,73,0.00,,,0.00,WUHU21623XXSP,2013-01-17 03:24:00,
2013-01-16 22:29:00,32.2,24.5,30.09,SW,225,6.5,6.5,73,0.00,,,0.00,WUHU21623XXSP,2013-01-17 03:29:00,
2013-01-16 22:34:00,32.2,24.5,30.09,WSW,247,2.7,6.5,73,0.00,,,0.00,WUHU21623XXSP,2013-01-17 03:34:00,
2013-01-16 22:39:00,32.2,24.5,30.09,WSW,247,0.0,5.4,73,0.00,,,0.00,WUHU21623XXSP,2013-01-17 03:39:00,
2013-01-16 22:44:00,32.2,24.5,30.09,West,270,0.0,5.4,73,0.00,,,0.00,WUHU21623XXSP,2013-01-17 03:44:00,
2013-01-16 22:49:00,32.2,24.5,30.09,SW,225,1.8,1.8,73,0.00,,,0.00,WUHU21623XXSP,2013-01-17 03:49:00,
2013-01-16 22:54:00,32.2,24.5,30.09,WSW,247,0.0,1.8,73,0.00,,,0.00,WUHU21623XXSP,2013-01-17 03:54:00,
2013-01-16 22:59:00,32.2,24.5,30.09,WSW,247,3.4,3.4,73,0.00,,,0.00,WUHU21623XXSP,2013-01-17 03:59:00,
2013-01-16 23:04:00,32.2,24.5,30.09,WSW,247,2.0,3.4,73,0.00,,,0.00,WUHU21623XXSP,2013-01-17 04:04:00,
2013-01-16 23:09:00,32.4,24.7,30.09,WSW,247,0.0,4.7,73,0.00,,,0.00,WUHU21623XXSP,2013-01-17 04:09:00,
2013-01-16 23:14:00,32.4,24.7,30.10,West,270,0.0,4.7,73,0.00,,,0.00,WUHU21623XXSP,2013-01-17 04:14:00,
2013-01-16 23:19:00,32.4,24.7,30.09,West,270,4.3,4.3,73,0.00,,,0.00,WUHU21623XXSP,2013-01-17 04:19:00,
2013-01-16 23:24:00,32.5,24.8,30.09,SW,225,0.7,4.3,73,0.00,,,0.00,WUHU21623XXSP,2013-01-17 04:24:00,
2013-01-16 23:29:00,32.5,24.8,30.09,SW,225,6.3,6.3,73,0.00,,,0.00,WUHU21623XXSP,2013-01-17 04:29:00,
2013-01-16 23:34:00,32.5,24.8,30.09,SW,225,0.0,6.3,73,0.00,,,0.00,WUHU21623XXSP,2013-01-17 04:34:00,
2013-01-16 23:39:00,32.5,24.8,30.10,SW,225,2.0,5.8,73,0.00,,,0.00,WUHU21623XXSP,2013-01-17 04:39:00,
2013-01-16 23:44:00,32.5,24.8,30.10,SW,225,0.0,5.8,73,0.00,,,0.00,WUHU21623XXSP,2013-01-17 04:44:00,
2013-01-16 23:49:00,32.5,24.8,30.10,WSW,247,6.3,6.3,73,0.00,,,0.00,WUHU21623XXSP,2013-01-17 04:49:00,
2013-01-16 23:54:00,32.5,24.8,30.10,WSW,247,3.4,6.3,73,0.00,,,0.00,WUHU21623XXSP,2013-01-17 04:54:00,
2013-01-16 23:59:00,32.5,24.8,30.10,SW,225,0.0,3.4,73,0.00,,,0.00,WUHU21623XXSP,2013-01-17 04:59:00,